createdAt,value
2019-02-15T00:00:39.061Z,74.77
2019-02-15T00:03:08.749Z,79.57
2019-02-15T00:05:37.538Z,77.53
2019-02-15T00:08:06.220Z,82.07
2019-02-15T00:10:35.546Z,70.97
2019-02-15T00:13:13.059Z,85.93
2019-02-15T00:15:34.743Z,82.57
2019-02-15T00:18:05.331Z,89.57
2019-02-15T00:20:41.529Z,84.87
2019-02-15T00:23:10.206Z,90.87
2019-02-15T00:25:38.988Z,92.83
2019-02-15T00:28:07.742Z,89.90
2019-02-15T00:30:36.430Z,92.57
2019-02-15T00:33:05.118Z,86.30
2019-02-15T00:35:33.849Z,87.03
2019-02-15T00:38:02.705Z,84.40
2019-02-15T00:40:31.377Z,80.63
2019-02-15T00:43:00.016Z,85.23
2019-02-15T00:45:33.408Z,88.13
2019-02-15T00:48:03.733Z,79.57
2019-02-15T00:50:50.453Z,80.33
2019-02-15T00:53:20.843Z,79.30
2019-02-15T00:55:51.282Z,82.40
2019-02-15T00:58:30.325Z,81.60
2019-02-15T01:01:19.046Z,77.90
2019-02-15T01:03:52.085Z,79.37
2019-02-15T01:06:22.847Z,82.33
2019-02-15T01:08:55.855Z,85.50
2019-02-15T01:11:28.695Z,78.53
2019-02-15T01:13:57.460Z,79.63
2019-02-15T01:16:30.627Z,81.67
2019-02-15T01:18:59.300Z,84.77
2019-02-15T01:21:27.924Z,84.37
2019-02-15T01:23:56.703Z,84.00
2019-02-15T01:26:27.135Z,88.30
2019-02-15T01:28:57.560Z,93.83
2019-02-15T01:31:40.345Z,80.77
2019-02-15T01:34:19.657Z,86.83
2019-02-15T01:36:58.842Z,91.33
2019-02-15T01:39:41.338Z,86.03
2019-02-15T01:42:14.535Z,87.60
2019-02-15T01:44:48.793Z,89.60
2019-02-15T01:47:18.523Z,97.10
2019-02-15T01:49:47.281Z,92.63
2019-02-15T01:52:15.956Z,89.23
2019-02-15T01:54:44.747Z,98.83
2019-02-15T01:57:16.547Z,95.50
2019-02-15T01:59:46.827Z,98.77
2019-02-15T02:02:15.929Z,98.97
2019-02-15T02:04:44.755Z,107.63
2019-02-15T02:07:13.615Z,98.17
2019-02-15T02:09:42.371Z,96.40
2019-02-15T02:12:11.784Z,109.17
2019-02-15T02:14:40.561Z,89.97
2019-02-15T02:17:09.326Z,97.13
2019-02-15T02:19:38.149Z,97.40
2019-02-15T02:22:06.961Z,98.50
2019-02-15T02:24:35.731Z,102.50
2019-02-15T02:27:04.591Z,99.93
2019-02-15T02:29:33.571Z,101.77
2019-02-15T02:32:02.365Z,100.33
2019-02-15T02:34:31.081Z,103.70
2019-02-15T02:36:59.768Z,92.90
2019-02-15T02:39:28.507Z,105.03
2019-02-15T02:41:58.813Z,101.43
2019-02-15T02:44:27.572Z,93.27
2019-02-15T02:46:56.430Z,104.17
2019-02-15T02:49:25.159Z,93.33
2019-02-15T02:51:53.838Z,93.77
2019-02-15T02:54:22.518Z,92.30
2019-02-15T02:56:51.209Z,88.80
2019-02-15T02:59:19.917Z,106.17
2019-02-15T03:01:48.740Z,98.33
2019-02-15T03:04:17.463Z,91.80
2019-02-15T03:06:46.317Z,96.03
2019-02-15T03:09:14.946Z,99.97
2019-02-15T03:11:43.948Z,106.70
2019-02-15T03:14:12.714Z,96.40
2019-02-15T03:16:41.596Z,98.13
2019-02-15T03:19:10.371Z,98.53
2019-02-15T03:21:39.130Z,106.90
2019-02-15T03:24:09.657Z,104.07
2019-02-15T03:26:38.505Z,109.23
2019-02-15T03:29:07.204Z,109.53
2019-02-15T03:31:35.910Z,102.77
2019-02-15T03:34:04.801Z,103.33
2019-02-15T03:36:35.360Z,111.00
2019-02-15T03:39:07.414Z,106.47
2019-02-15T03:41:36.150Z,105.50
2019-02-15T03:44:04.841Z,98.23
2019-02-15T03:46:33.584Z,111.57
2019-02-15T03:49:02.420Z,113.27
2019-02-15T03:51:31.203Z,107.23
2019-02-15T03:54:00.008Z,103.20
2019-02-15T03:56:28.812Z,108.10
2019-02-15T03:58:57.513Z,104.40
2019-02-15T04:01:26.588Z,107.90
2019-02-15T04:03:55.360Z,102.50
2019-02-15T04:06:24.048Z,108.43
2019-02-15T04:08:52.850Z,105.73
2019-02-15T04:11:24.680Z,113.10
2019-02-15T04:13:53.530Z,109.60
2019-02-15T04:16:22.206Z,115.27
2019-02-15T04:18:52.616Z,108.57
2019-02-15T04:21:23.924Z,112.40
2019-02-15T04:23:52.777Z,112.73
2019-02-15T04:26:21.627Z,104.57
2019-02-15T04:28:50.691Z,117.77
2019-02-15T04:31:19.467Z,113.20
2019-02-15T04:33:48.287Z,112.97
2019-02-15T04:36:16.942Z,108.30
2019-02-15T04:38:45.755Z,117.07
2019-02-15T04:41:14.716Z,105.03
2019-02-15T04:43:43.525Z,118.03
2019-02-15T04:46:12.238Z,117.93
2019-02-15T04:48:41.018Z,120.33
2019-02-15T04:51:09.864Z,118.47
2019-02-15T04:53:38.745Z,123.37
2019-02-15T04:56:07.469Z,112.87
2019-02-15T04:58:36.399Z,115.10
2019-02-15T05:01:05.406Z,112.17
2019-02-15T05:03:34.231Z,129.13
2019-02-15T05:06:02.946Z,112.63
2019-02-15T05:08:31.723Z,113.80
2019-02-15T05:11:00.400Z,120.97
2019-02-15T05:13:29.240Z,114.57
2019-02-15T05:15:57.985Z,118.57
2019-02-15T05:18:26.808Z,105.03
2019-02-15T05:20:55.514Z,114.83
2019-02-15T05:23:24.444Z,108.17
2019-02-15T05:25:53.079Z,108.83
2019-02-15T05:28:21.805Z,118.87
2019-02-15T05:30:50.693Z,113.73
2019-02-15T05:33:19.576Z,113.57
2019-02-15T05:35:48.311Z,117.30
2019-02-15T05:38:16.979Z,111.30
2019-02-15T05:40:45.897Z,117.37
2019-02-15T05:43:14.671Z,115.43
2019-02-15T05:45:43.327Z,112.77
2019-02-15T05:48:11.990Z,111.53
2019-02-15T05:50:40.790Z,134.00
2019-02-15T05:53:09.539Z,117.13
2019-02-15T05:55:38.220Z,105.40
2019-02-15T05:58:06.959Z,105.90
2019-02-15T06:00:37.275Z,106.53
2019-02-15T06:03:08.366Z,102.87
2019-02-15T06:05:36.775Z,101.50
2019-02-15T06:08:05.453Z,100.63
2019-02-15T06:10:35.142Z,92.33
2019-02-15T06:13:04.044Z,93.73
2019-02-15T06:15:32.715Z,97.33
2019-02-15T06:18:01.383Z,102.37
2019-02-15T06:20:30.267Z,103.43
2019-02-15T06:22:58.878Z,102.80
2019-02-15T06:25:27.718Z,106.33
2019-02-15T06:27:59.236Z,101.97
2019-02-15T06:30:28.116Z,96.43
2019-02-15T06:32:56.825Z,97.83
2019-02-15T06:35:25.752Z,107.87
2019-02-15T06:37:54.701Z,102.30
2019-02-15T06:40:23.550Z,105.13
2019-02-15T06:42:54.002Z,104.57
2019-02-15T06:45:25.722Z,101.00
2019-02-15T06:47:57.095Z,105.87
2019-02-15T06:50:25.240Z,99.93
2019-02-15T06:52:54.028Z,87.60
2019-02-15T06:55:28.517Z,102.77
2019-02-15T06:57:57.282Z,102.27
2019-02-15T07:00:33.456Z,102.60
2019-02-15T07:03:14.851Z,98.57
2019-02-15T07:06:05.331Z,102.63
2019-02-15T07:09:01.614Z,95.03
2019-02-15T07:11:40.763Z,103.00
2019-02-15T07:14:09.938Z,94.67
2019-02-15T07:18:23.332Z,102.13
2019-02-15T07:19:35.947Z,98.67
2019-02-15T07:21:52.082Z,98.63
2019-02-15T07:24:20.992Z,90.53
2019-02-15T07:26:50.220Z,90.70
2019-02-15T07:29:22.036Z,88.53
2019-02-15T07:31:50.865Z,88.70
2019-02-15T07:34:19.671Z,87.97
2019-02-15T07:36:48.442Z,100.23
2019-02-15T07:39:24.048Z,87.50
2019-02-15T07:41:52.800Z,86.13
2019-02-15T07:44:21.624Z,90.00
2019-02-15T07:46:50.528Z,96.23
2019-02-15T07:49:26.589Z,88.17
2019-02-15T07:51:49.578Z,82.70
2019-02-15T07:54:18.433Z,86.90
2019-02-15T07:56:47.222Z,89.33
2019-02-15T07:59:15.994Z,78.70
2019-02-15T08:01:44.892Z,79.13
2019-02-15T08:04:13.819Z,75.17
2019-02-15T08:06:44.207Z,79.20
2019-02-15T08:09:12.997Z,80.10
2019-02-15T08:11:41.873Z,76.90
2019-02-15T08:14:14.964Z,79.30
2019-02-15T08:16:41.092Z,65.83
2019-02-15T08:19:09.875Z,72.00
2019-02-15T08:21:38.601Z,69.27
2019-02-15T08:24:07.377Z,63.47
2019-02-15T08:26:36.159Z,58.83
2019-02-15T08:29:25.013Z,57.33
2019-02-15T08:31:53.864Z,58.43
2019-02-15T08:34:22.506Z,62.77
2019-02-15T08:36:51.336Z,56.60
2019-02-15T08:39:19.983Z,53.00
2019-02-15T08:42:00.702Z,58.10
2019-02-15T08:44:19.307Z,47.90
2019-02-15T08:46:48.295Z,50.20
2019-02-15T08:49:17.084Z,54.63
2019-02-15T08:51:45.862Z,49.93
2019-02-15T08:54:14.629Z,46.70
2019-02-15T08:56:43.251Z,47.47
2019-02-15T08:59:12.051Z,52.93
2019-02-15T09:01:40.720Z,47.93
2019-02-15T09:04:09.605Z,42.07
2019-02-15T09:06:38.284Z,50.83
2019-02-15T09:09:07.315Z,52.90
2019-02-15T09:11:37.618Z,48.27
2019-02-15T09:14:08.493Z,44.63
2019-02-15T09:16:51.023Z,46.97
2019-02-15T09:19:29.784Z,46.83
2019-02-15T09:21:56.915Z,43.93
2019-02-15T09:24:41.220Z,48.13
2019-02-15T09:27:16.246Z,42.77
2019-02-15T09:29:50.731Z,41.67
2019-02-15T09:32:31.869Z,41.57
2019-02-15T09:35:13.799Z,42.93
2019-02-15T09:37:51.413Z,39.87
2019-02-15T09:40:20.185Z,42.60
2019-02-15T09:42:49.072Z,43.83
2019-02-15T09:45:17.657Z,40.33
2019-02-15T09:47:46.370Z,40.80
2019-02-15T09:50:16.150Z,39.53
2019-02-15T09:52:44.828Z,42.63
2019-02-15T09:55:13.787Z,44.53
2019-02-15T09:57:42.554Z,44.33
2019-02-15T10:00:12.230Z,41.23
2019-02-15T10:02:43.014Z,40.50
2019-02-15T10:05:11.774Z,41.07
2019-02-15T10:07:40.694Z,39.30
2019-02-15T10:10:10.331Z,41.20
2019-02-15T10:12:38.989Z,42.37
2019-02-15T10:15:11.699Z,45.27
2019-02-15T10:17:40.435Z,40.87
2019-02-15T10:20:11.093Z,43.53
2019-02-15T10:22:39.958Z,42.60
2019-02-15T10:25:09.939Z,40.60
2019-02-15T10:27:38.901Z,41.97
2019-02-15T10:30:10.425Z,40.57
2019-02-15T10:32:39.376Z,33.57
2019-02-15T10:35:10.684Z,41.87
2019-02-15T10:37:39.375Z,40.67
2019-02-15T10:40:12.027Z,42.77
2019-02-15T10:42:40.888Z,38.97
2019-02-15T10:45:12.752Z,37.93
2019-02-15T10:47:41.431Z,38.90
2019-02-15T10:50:11.401Z,37.57
2019-02-15T10:52:40.197Z,41.90
2019-02-15T10:55:10.214Z,35.13
2019-02-15T10:57:38.932Z,45.87
2019-02-15T11:00:20.095Z,47.97
2019-02-15T11:02:48.374Z,43.73
2019-02-15T11:05:18.958Z,43.17
2019-02-15T11:07:48.099Z,44.60
2019-02-15T11:10:19.951Z,42.07
2019-02-15T11:12:48.610Z,51.83
2019-02-15T11:15:17.707Z,44.53
2019-02-15T11:17:46.628Z,50.20
2019-02-15T11:20:17.715Z,44.93
2019-02-15T11:22:46.511Z,50.87
2019-02-15T11:25:15.326Z,47.37
2019-02-15T11:27:44.118Z,54.00
2019-02-15T11:30:55.421Z,51.57
2019-02-15T11:33:27.387Z,58.73
2019-02-15T11:35:55.176Z,61.20
2019-02-15T11:38:24.071Z,67.03
2019-02-15T11:40:53.403Z,63.37
2019-02-15T11:43:22.167Z,64.23
2019-02-15T11:45:52.602Z,61.33
2019-02-15T11:48:23.922Z,62.50
2019-02-15T11:50:54.908Z,61.50
2019-02-15T11:53:23.390Z,60.00
2019-02-15T11:55:52.124Z,66.50
2019-02-15T11:58:20.882Z,62.17
2019-02-15T12:00:54.075Z,62.00
2019-02-15T12:03:22.820Z,68.93
2019-02-15T12:05:53.916Z,65.60
2019-02-15T12:08:22.724Z,72.60
2019-02-15T12:10:51.529Z,75.13
2019-02-15T12:13:20.481Z,68.63
2019-02-15T12:15:49.186Z,69.43
2019-02-15T12:18:18.200Z,61.33
2019-02-15T12:20:47.098Z,68.90
2019-02-15T12:23:16.253Z,64.57
2019-02-15T12:25:45.146Z,67.27
2019-02-15T12:28:13.925Z,68.43
2019-02-15T12:30:42.736Z,64.77
2019-02-15T12:33:11.506Z,69.93
2019-02-15T12:35:40.191Z,60.33
2019-02-15T12:38:08.937Z,66.70
2019-02-15T12:40:37.586Z,69.77
2019-02-15T12:43:08.746Z,64.80
2019-02-15T12:45:37.712Z,63.33
2019-02-15T12:48:06.556Z,61.47
2019-02-15T12:50:47.051Z,58.70
2019-02-15T12:53:15.750Z,60.03
2019-02-15T12:55:46.376Z,64.03
2019-02-15T12:58:15.292Z,64.90
2019-02-15T13:00:44.038Z,64.13
2019-02-15T13:03:12.847Z,66.37
2019-02-15T13:05:41.955Z,64.37
2019-02-15T13:08:10.856Z,62.77
2019-02-15T13:10:40.878Z,60.90
2019-02-15T13:13:09.759Z,63.87
2019-02-15T13:15:38.553Z,60.80
2019-02-15T13:18:07.371Z,65.37
2019-02-15T13:20:37.747Z,70.40
2019-02-15T13:23:06.606Z,71.87
2019-02-15T13:25:36.999Z,74.00
2019-02-15T13:28:05.772Z,69.57
2019-02-15T13:30:34.487Z,72.97
2019-02-15T13:33:03.294Z,74.67
2019-02-15T13:35:31.935Z,76.03
2019-02-15T13:38:00.817Z,78.27
2019-02-15T13:40:32.458Z,74.93
2019-02-15T13:43:01.255Z,82.23
2019-02-15T13:45:29.972Z,80.33
2019-02-15T13:47:58.653Z,85.67
2019-02-15T13:50:27.347Z,78.20
2019-02-15T13:52:56.032Z,78.17
2019-02-15T13:55:24.790Z,83.47
2019-02-15T13:57:55.486Z,78.97
2019-02-15T14:00:23.874Z,79.10
2019-02-15T14:02:52.688Z,86.07
2019-02-15T14:05:21.397Z,79.73
2019-02-15T14:07:50.262Z,80.23
2019-02-15T14:10:19.060Z,83.20
2019-02-15T14:12:48.056Z,81.27
2019-02-15T14:15:19.591Z,85.63
2019-02-15T14:17:48.879Z,86.60
2019-02-15T14:20:18.023Z,89.77
2019-02-15T14:22:46.695Z,90.83
2019-02-15T14:25:15.435Z,86.73
2019-02-15T14:27:44.226Z,94.70
2019-02-15T14:30:14.016Z,93.20
2019-02-15T14:32:42.796Z,99.03
2019-02-15T14:35:14.877Z,107.53
2019-02-15T14:37:43.754Z,100.73
2019-02-15T14:40:13.872Z,104.27
2019-02-15T14:42:52.136Z,97.93
2019-02-15T14:45:16.563Z,82.33
2019-02-15T14:47:54.676Z,105.17
2019-02-15T14:50:20.144Z,99.47
2019-02-15T14:52:48.642Z,98.83
2019-02-15T14:55:17.556Z,109.30
2019-02-15T14:57:47.059Z,111.30
2019-02-15T15:00:16.216Z,105.10
2019-02-15T15:02:46.123Z,106.17
2019-02-15T15:05:14.965Z,101.83
2019-02-15T15:07:43.738Z,113.10
2019-02-15T15:10:12.605Z,99.87
2019-02-15T15:12:42.893Z,107.90
2019-02-15T15:15:16.353Z,109.30
2019-02-15T15:17:45.065Z,108.97
2019-02-15T15:20:15.014Z,110.80
2019-02-15T15:22:43.777Z,114.43
2019-02-15T15:25:14.067Z,107.53
2019-02-15T15:27:52.944Z,120.90
2019-02-15T15:30:36.856Z,120.90
2019-02-15T15:33:45.583Z,125.10
2019-02-15T15:36:14.300Z,116.57
2019-02-15T15:38:43.087Z,121.13
2019-02-15T15:41:11.842Z,126.20
2019-02-15T15:43:40.639Z,124.60
2019-02-15T15:46:09.343Z,119.13
2019-02-15T15:48:38.116Z,126.63
2019-02-15T15:51:06.949Z,123.17
2019-02-15T15:53:35.567Z,130.77
2019-02-15T15:56:04.327Z,125.53
2019-02-15T15:58:32.934Z,123.70
2019-02-15T16:01:01.662Z,129.27
2019-02-15T16:03:30.345Z,128.97
2019-02-15T16:06:24.405Z,132.70
2019-02-15T16:08:48.852Z,131.43
2019-02-15T16:11:17.658Z,127.20
2019-02-15T16:13:46.593Z,124.53
2019-02-15T16:16:15.316Z,122.53
2019-02-15T16:18:43.935Z,131.73
2019-02-15T16:21:12.744Z,121.97
2019-02-15T16:23:43.813Z,128.40
2019-02-15T16:26:22.696Z,123.43
2019-02-15T16:28:51.353Z,132.67
2019-02-15T16:31:20.177Z,122.73
2019-02-15T16:33:49.005Z,121.73
2019-02-15T16:36:20.636Z,126.67
2019-02-15T16:39:00.589Z,117.17
2019-02-15T16:41:44.489Z,128.37
2019-02-15T16:44:19.957Z,122.53
2019-02-15T16:46:56.459Z,120.17
2019-02-15T16:49:29.075Z,127.90
2019-02-15T16:52:03.296Z,126.03
2019-02-15T16:54:33.967Z,127.97
2019-02-15T16:57:12.436Z,124.23
2019-02-15T16:59:48.138Z,116.70
2019-02-15T17:05:24.109Z,133.10
2019-02-15T17:07:57.977Z,131.90
2019-02-15T17:10:30.483Z,129.13
2019-02-15T17:13:18.040Z,128.60
2019-02-15T17:18:37.027Z,135.13
2019-02-15T17:20:09.325Z,122.47
2019-02-15T17:21:10.619Z,125.03
2019-02-15T17:23:44.460Z,131.30
2019-02-15T17:26:16.273Z,135.20
2019-02-15T17:28:45.321Z,134.97
2019-02-15T17:31:15.197Z,143.60
2019-02-15T17:33:51.745Z,133.83
2019-02-15T17:36:20.749Z,154.90
2019-02-15T17:38:49.426Z,150.77
2019-02-15T17:41:21.292Z,156.17
2019-02-15T17:43:58.191Z,155.73
2019-02-15T17:46:26.957Z,156.07
2019-02-15T17:49:00.832Z,153.70
2019-02-15T17:51:26.277Z,154.40
2019-02-15T17:53:55.181Z,156.93
2019-02-15T17:56:26.512Z,163.50
2019-02-15T17:58:58.197Z,144.87
2019-02-15T18:01:31.419Z,152.00
2019-02-15T18:04:03.250Z,144.33
2019-02-15T18:06:32.225Z,146.70
2019-02-15T18:09:01.009Z,135.03
2019-02-15T18:11:33.111Z,141.07
2019-02-15T18:14:01.907Z,137.03
2019-02-15T18:16:40.100Z,138.50
2019-02-15T18:19:10.597Z,120.33
2019-02-15T18:21:41.544Z,120.70
2019-02-15T18:24:14.129Z,116.67
2019-02-15T18:26:42.886Z,116.47
2019-02-15T18:29:14.954Z,118.67
2019-02-15T18:31:43.850Z,114.53
2019-02-15T18:34:15.239Z,127.70
2019-02-15T18:36:44.457Z,109.93
2019-02-15T18:39:20.286Z,107.37
2019-02-15T18:41:51.702Z,107.63
2019-02-15T18:44:31.775Z,102.37
2019-02-15T18:47:00.220Z,103.03
2019-02-15T18:49:35.977Z,116.30
2019-02-15T18:52:23.861Z,110.97
2019-02-15T18:54:54.569Z,107.70
2019-02-15T18:57:26.448Z,105.70
2019-02-15T18:59:55.226Z,104.90
2019-02-15T19:02:29.959Z,118.50
2019-02-15T19:04:58.741Z,115.67
2019-02-15T19:07:27.591Z,121.23
2019-02-15T19:09:56.265Z,115.73
2019-02-15T19:12:27.849Z,126.27
2019-02-15T19:14:56.879Z,120.60
2019-02-15T19:17:26.916Z,122.67
2019-02-15T19:19:59.223Z,115.87
2019-02-15T19:22:27.899Z,111.60
2019-02-15T19:24:59.637Z,115.77
2019-02-15T19:27:28.439Z,111.93
2019-02-15T19:30:00.014Z,121.53
2019-02-15T19:32:28.877Z,117.93
2019-02-15T19:35:08.392Z,118.03
2019-02-15T19:37:37.366Z,122.03
2019-02-15T19:40:12.256Z,119.80
2019-02-15T19:42:45.325Z,121.77
2019-02-15T19:45:14.213Z,117.10
2019-02-15T19:47:44.187Z,122.80
2019-02-15T19:50:17.841Z,113.20
2019-02-15T19:52:48.514Z,118.33
2019-02-15T19:55:17.608Z,110.73
2019-02-15T19:57:49.460Z,118.97
2019-02-15T20:00:22.731Z,120.60
2019-02-15T20:02:57.074Z,124.70
2019-02-15T20:05:23.517Z,130.87
2019-02-15T20:08:05.017Z,112.47
2019-02-15T20:10:34.031Z,112.13
2019-02-15T20:13:03.831Z,131.00
2019-02-15T20:15:32.784Z,134.43
2019-02-15T20:18:01.628Z,136.73
2019-02-15T20:20:33.082Z,137.13
2019-02-15T20:23:02.288Z,143.00
2019-02-15T20:25:30.960Z,125.83
2019-02-15T20:27:59.833Z,124.47
2019-02-15T20:30:28.778Z,130.17
2019-02-15T20:32:57.568Z,127.90
2019-02-15T20:35:28.024Z,120.20
2019-02-15T20:37:58.478Z,124.57
2019-02-15T20:40:28.807Z,134.97
2019-02-15T20:43:01.048Z,133.90
2019-02-15T20:45:29.884Z,135.37
2019-02-15T20:47:58.623Z,125.07
2019-02-15T20:50:27.322Z,133.87
2019-02-15T20:52:57.910Z,127.50
2019-02-15T20:55:26.655Z,129.83
2019-02-15T20:57:55.433Z,130.70
2019-02-15T21:00:29.184Z,132.97
2019-02-15T21:02:59.651Z,145.87
2019-02-15T21:05:28.652Z,144.00
2019-02-15T21:07:58.292Z,152.93
2019-02-15T21:10:26.923Z,153.77
2019-02-15T21:12:55.763Z,150.60
2019-02-15T21:15:24.597Z,156.43
2019-02-15T21:17:53.461Z,148.57
2019-02-15T21:20:24.440Z,144.97
2019-02-15T21:22:52.806Z,153.73
2019-02-15T21:25:21.672Z,151.70
2019-02-15T21:27:50.447Z,155.17
2019-02-15T21:30:19.655Z,153.57
2019-02-15T21:32:48.353Z,154.17
2019-02-15T21:35:20.015Z,150.80
2019-02-15T21:37:49.054Z,153.40
2019-02-15T21:40:18.771Z,152.53
2019-02-15T21:42:47.638Z,151.13
2019-02-15T21:45:16.660Z,149.07
2019-02-15T21:47:45.419Z,147.83
2019-02-15T21:50:17.577Z,143.73
2019-02-15T21:52:44.773Z,141.53
2019-02-15T21:55:15.646Z,163.40
2019-02-15T21:57:44.542Z,159.93
2019-02-15T22:00:28.462Z,156.73
2019-02-15T22:02:58.798Z,168.80
2019-02-15T22:05:27.722Z,143.77
2019-02-15T22:07:56.571Z,157.80
2019-02-15T22:10:25.408Z,157.77
2019-02-15T22:12:54.430Z,148.87
2019-02-15T22:15:23.352Z,140.53
2019-02-15T22:17:52.262Z,158.00
2019-02-15T22:20:26.694Z,148.70
2019-02-15T22:22:51.725Z,156.37
2019-02-15T22:25:20.442Z,145.93
2019-02-15T22:27:49.218Z,147.47
2019-02-15T22:30:19.511Z,143.43
2019-02-15T22:32:48.268Z,148.03
2019-02-15T22:35:21.362Z,155.43
2019-02-15T22:37:50.105Z,143.23
2019-02-15T22:40:26.854Z,172.13
2019-02-15T22:42:56.157Z,167.33
2019-02-15T22:45:24.982Z,155.30
2019-02-15T22:47:53.683Z,177.97
2019-02-15T22:50:22.517Z,174.40
2019-02-15T22:52:54.513Z,183.87
2019-02-15T22:55:23.495Z,182.47
2019-02-15T22:57:52.271Z,174.43
2019-02-15T23:00:31.520Z,162.97
2019-02-15T23:03:00.315Z,168.57
2019-02-15T23:05:29.255Z,164.70
2019-02-15T23:07:58.142Z,155.60
2019-02-15T23:10:26.878Z,156.50
2019-02-15T23:12:55.725Z,160.27
2019-02-15T23:15:24.492Z,156.67
2019-02-15T23:17:56.089Z,163.13
2019-02-15T23:20:24.872Z,173.47
2019-02-15T23:22:53.619Z,171.87
2019-02-15T23:25:22.441Z,164.10
2019-02-15T23:27:51.121Z,167.57
2019-02-15T23:30:20.201Z,162.33
2019-02-15T23:32:48.916Z,162.40
2019-02-15T23:35:17.632Z,177.73
2019-02-15T23:37:46.378Z,168.13
2019-02-15T23:40:14.955Z,165.87
2019-02-15T23:42:43.595Z,158.83
2019-02-15T23:45:12.496Z,171.60
2019-02-15T23:47:41.273Z,154.50
2019-02-15T23:50:10.234Z,170.47
2019-02-15T23:52:39.049Z,153.10
2019-02-15T23:55:07.830Z,156.23
2019-02-15T23:57:36.613Z,161.03
